createdAt,value
2022-11-01T00:01:58.601Z,999.90
2022-11-01T00:04:26.889Z,999.90
2022-11-01T00:06:54.989Z,999.90
2022-11-01T00:09:24.332Z,999.90
2022-11-01T00:11:52.558Z,999.90
2022-11-01T00:14:21.503Z,999.90
2022-11-01T00:16:49.951Z,999.90
2022-11-01T00:19:18.386Z,999.90
2022-11-01T00:21:46.198Z,999.90
2022-11-01T00:24:14.025Z,999.90
2022-11-01T00:26:43.318Z,999.90
2022-11-01T00:29:12.651Z,774.30
2022-11-01T00:31:40.712Z,830.50
2022-11-01T00:34:08.468Z,373.77
2022-11-01T00:36:37.358Z,354.33
2022-11-01T00:39:05.836Z,432.30
2022-11-01T00:41:33.702Z,492.27
2022-11-01T00:44:02.841Z,620.03
2022-11-01T00:46:31.120Z,706.00
2022-11-01T00:48:58.933Z,871.33
2022-11-01T00:51:26.905Z,999.90
2022-11-01T00:53:54.679Z,972.43
2022-11-01T00:56:22.660Z,906.37
2022-11-01T00:58:50.495Z,896.17
2022-11-01T01:01:19.792Z,851.10
2022-11-01T01:03:47.749Z,754.30
2022-11-01T01:06:15.500Z,721.60
2022-11-01T01:08:43.278Z,686.23
2022-11-01T01:11:11.459Z,689.97
2022-11-01T01:13:39.205Z,613.30
2022-11-01T01:16:11.439Z,366.93
2022-11-01T01:18:40.812Z,339.60
2022-11-01T01:21:09.050Z,542.10
2022-11-01T01:23:37.166Z,636.10
2022-11-01T01:26:08.015Z,611.47
2022-11-01T01:28:40.116Z,522.93
2022-11-01T01:31:12.707Z,371.00
2022-11-01T01:33:42.184Z,434.70
2022-11-01T01:36:10.093Z,529.80
2022-11-01T01:38:38.024Z,666.87
2022-11-01T01:41:24.026Z,617.83
2022-11-01T01:43:51.806Z,475.17
2022-11-01T01:46:19.755Z,563.57
2022-11-01T01:48:54.326Z,671.50
2022-11-01T01:51:27.591Z,607.93
2022-11-01T01:53:58.127Z,614.07
2022-11-01T01:56:31.944Z,706.47
2022-11-01T01:59:03.373Z,536.30
2022-11-01T02:01:31.805Z,459.93
2022-11-01T02:04:04.633Z,847.97
2022-11-01T02:06:34.212Z,829.63
2022-11-01T02:09:05.031Z,760.50
2022-11-01T02:11:32.926Z,999.90
2022-11-01T02:14:01.366Z,999.90
2022-11-01T02:16:43.213Z,766.97
2022-11-01T02:19:52.226Z,999.90
2022-11-01T02:22:29.739Z,999.90
2022-11-01T02:25:35.907Z,999.90
2022-11-01T02:28:22.365Z,999.90
2022-11-01T02:31:04.696Z,999.90
2022-11-01T02:33:38.595Z,754.37
2022-11-01T02:36:12.569Z,780.07
2022-11-01T02:38:48.405Z,786.73
2022-11-01T02:41:22.487Z,334.90
2022-11-01T02:43:55.246Z,431.00
2022-11-01T02:46:50.138Z,500.67
2022-11-01T02:49:22.864Z,255.53
2022-11-01T02:51:52.146Z,402.30
2022-11-01T02:54:22.753Z,426.40
2022-11-01T02:56:51.676Z,251.67
2022-11-01T02:59:24.842Z,802.23
2022-11-01T03:02:02.667Z,770.00
2022-11-01T03:04:32.310Z,738.47
2022-11-01T03:07:03.707Z,999.90
2022-11-01T03:09:33.290Z,999.90
2022-11-01T03:12:05.329Z,795.17
2022-11-01T03:14:36.518Z,797.80
2022-11-01T03:17:13.153Z,751.00
2022-11-01T03:19:48.107Z,999.90
2022-11-01T03:22:20.240Z,783.73
2022-11-01T03:24:53.819Z,174.00
2022-11-01T03:27:28.459Z,999.90
2022-11-01T03:30:00.098Z,999.90
2022-11-01T03:32:35.161Z,731.50
2022-11-01T03:35:06.226Z,751.23
2022-11-01T03:37:36.202Z,999.90
2022-11-01T03:40:07.685Z,999.90
2022-11-01T03:42:37.405Z,999.90
2022-11-01T03:45:10.332Z,999.90
2022-11-01T03:47:38.484Z,999.90
2022-11-01T03:50:15.129Z,999.90
2022-11-01T03:52:43.442Z,999.90
2022-11-01T03:55:18.982Z,999.90
2022-11-01T03:57:48.641Z,999.90
2022-11-01T04:00:18.322Z,999.90
2022-11-01T04:02:46.404Z,999.90
2022-11-01T04:05:15.683Z,999.90
2022-11-01T04:07:44.201Z,999.90
2022-11-01T04:10:12.785Z,999.90
2022-11-01T04:12:41.093Z,999.90
2022-11-01T04:15:28.459Z,721.23
2022-11-01T04:18:25.793Z,999.90
2022-11-01T04:20:55.232Z,999.90
2022-11-01T04:23:23.261Z,999.90
2022-11-01T04:25:51.065Z,761.20
2022-11-01T04:28:19.222Z,999.90
2022-11-01T04:30:47.029Z,999.90
2022-11-01T04:33:14.998Z,999.90
2022-11-01T04:35:42.901Z,999.90
2022-11-01T04:38:12.986Z,999.90
2022-11-01T04:40:41.383Z,999.90
2022-11-01T04:43:09.276Z,999.90
2022-11-01T04:45:37.140Z,999.90
2022-11-01T04:48:06.513Z,999.90
2022-11-01T04:50:35.223Z,999.90
2022-11-01T04:53:03.344Z,723.63
2022-11-01T04:55:32.761Z,774.33
2022-11-01T04:58:00.497Z,789.77
2022-11-01T05:00:28.576Z,424.40
2022-11-01T05:03:02.447Z,443.50
2022-11-01T05:05:31.174Z,390.37
2022-11-01T05:08:03.240Z,397.20
2022-11-01T05:10:33.448Z,777.23
2022-11-01T05:13:01.700Z,778.90
2022-11-01T05:15:29.749Z,756.67
2022-11-01T05:17:57.633Z,728.10
2022-11-01T05:20:25.877Z,773.70
2022-11-01T05:22:53.797Z,239.60
2022-11-01T05:25:21.591Z,287.03
2022-11-01T05:27:50.745Z,289.73
2022-11-01T05:30:18.598Z,314.50
2022-11-01T05:32:46.349Z,840.40
2022-11-01T05:35:14.086Z,369.57
2022-11-01T05:37:41.804Z,834.73
2022-11-01T05:40:10.737Z,257.93
2022-11-01T05:42:39.438Z,798.70
2022-11-01T05:45:10.062Z,779.77
2022-11-01T05:47:40.321Z,795.50
2022-11-01T05:50:09.284Z,999.90
2022-11-01T05:52:37.115Z,784.97
2022-11-01T05:55:05.803Z,805.87
2022-11-01T05:57:34.052Z,822.97
2022-11-01T06:00:02.379Z,374.00
2022-11-01T06:02:41.378Z,816.07
2022-11-01T06:05:10.094Z,850.87
2022-11-01T06:07:37.902Z,999.90
2022-11-01T06:10:06.798Z,786.10
2022-11-01T06:12:34.588Z,802.50
2022-11-01T06:15:02.407Z,295.33
2022-11-01T06:17:30.140Z,823.57
2022-11-01T06:19:59.662Z,999.90
2022-11-01T06:22:27.403Z,765.20
2022-11-01T06:24:55.190Z,751.03
2022-11-01T06:27:23.022Z,751.40
2022-11-01T06:29:50.763Z,786.37
2022-11-01T06:32:18.813Z,269.50
2022-11-01T06:34:46.614Z,367.77
2022-11-01T06:37:16.488Z,413.90
2022-11-01T06:39:44.225Z,867.30
2022-11-01T06:42:12.050Z,359.43
2022-11-01T06:44:39.819Z,358.53
2022-11-01T06:47:07.688Z,859.77
2022-11-01T06:49:35.484Z,887.67
2022-11-01T06:52:03.265Z,475.70
2022-11-01T06:54:32.407Z,355.57
2022-11-01T06:57:00.209Z,287.60
2022-11-01T06:59:28.061Z,825.63
2022-11-01T07:01:55.928Z,374.20
2022-11-01T07:04:23.931Z,445.87
2022-11-01T07:06:51.688Z,481.60
2022-11-01T07:09:19.490Z,480.40
2022-11-01T07:11:48.612Z,566.97
2022-11-01T07:14:16.406Z,457.47
2022-11-01T07:16:44.193Z,471.27
2022-11-01T07:19:12.038Z,494.83
2022-11-01T07:21:40.000Z,387.73
2022-11-01T07:24:07.850Z,839.70
2022-11-01T07:26:35.739Z,824.93
2022-11-01T07:29:05.135Z,842.80
2022-11-01T07:31:34.442Z,281.07
2022-11-01T07:34:02.219Z,402.97
2022-11-01T07:36:29.995Z,495.27
2022-11-01T07:38:57.801Z,602.37
2022-11-01T07:41:25.610Z,658.10
2022-11-01T07:43:57.398Z,815.93
2022-11-01T07:46:26.522Z,924.40
2022-11-01T07:48:54.330Z,961.93
2022-11-01T07:51:22.092Z,996.50
2022-11-01T07:53:49.913Z,921.73
2022-11-01T07:56:18.186Z,917.60
2022-11-01T07:58:46.219Z,876.10
2022-11-01T08:01:17.002Z,949.33
2022-11-01T08:03:46.263Z,963.00
2022-11-01T08:06:14.254Z,974.43
2022-11-01T08:08:42.130Z,999.90
2022-11-01T08:11:10.014Z,999.90
2022-11-01T08:13:37.812Z,999.90
2022-11-01T08:16:06.320Z,999.90
2022-11-01T08:18:34.083Z,999.90
2022-11-01T08:21:03.266Z,999.90
2022-11-01T08:23:31.015Z,999.90
2022-11-01T08:25:59.255Z,985.93
2022-11-01T08:28:29.677Z,936.83
2022-11-01T08:30:57.454Z,704.30
2022-11-01T08:33:25.606Z,486.63
2022-11-01T08:39:25.366Z,999.90
2022-11-01T08:49:41.757Z,777.70
2022-11-01T08:52:10.534Z,727.93
2022-11-01T08:54:38.737Z,626.60
2022-11-01T08:57:06.699Z,999.90
2022-11-01T08:59:34.680Z,999.90
2022-11-01T09:02:02.763Z,778.37
2022-11-01T09:04:31.035Z,376.47
2022-11-01T09:07:00.354Z,524.50
2022-11-01T09:09:29.365Z,636.83
2022-11-01T09:11:57.806Z,976.17
2022-11-01T09:14:26.302Z,999.90
2022-11-01T09:16:54.176Z,999.90
2022-11-01T09:19:22.258Z,835.97
2022-11-01T09:21:50.447Z,765.70
2022-11-01T09:24:19.610Z,999.90
2022-11-01T09:26:47.694Z,999.90
2022-11-01T09:29:17.071Z,999.90
2022-11-01T09:31:44.840Z,999.90
2022-11-01T09:34:12.999Z,999.90
2022-11-01T09:36:40.854Z,999.90
2022-11-01T09:39:08.872Z,999.90
2022-11-01T09:41:42.729Z,999.90
2022-11-01T09:44:16.950Z,999.90
2022-11-01T09:46:48.568Z,999.90
2022-11-01T09:49:22.368Z,999.90
2022-11-01T09:51:50.355Z,999.90
2022-11-01T09:54:21.597Z,999.90
2022-11-01T09:57:02.121Z,999.90
2022-11-01T09:59:35.715Z,999.90
2022-11-01T10:02:30.507Z,999.90
2022-11-01T10:05:18.605Z,999.90
2022-11-01T10:07:55.868Z,999.90
2022-11-01T10:10:36.753Z,999.90
2022-11-01T10:13:25.743Z,999.90
2022-11-01T10:16:02.191Z,999.90
2022-11-01T10:18:31.808Z,999.90
2022-11-01T10:21:02.910Z,999.90
2022-11-01T10:23:47.227Z,999.90
2022-11-01T10:26:19.272Z,999.90
2022-11-01T10:28:54.680Z,999.90
2022-11-01T10:31:25.291Z,999.90
2022-11-01T10:34:00.060Z,999.90
2022-11-01T10:36:33.523Z,999.90
2022-11-01T10:42:09.975Z,999.90
2022-11-01T10:44:42.336Z,999.90
2022-11-01T10:47:18.948Z,999.90
2022-11-01T10:50:05.567Z,999.90
2022-11-01T10:52:43.073Z,999.90
2022-11-01T10:55:16.616Z,999.90
2022-11-01T10:57:49.439Z,999.90
2022-11-01T11:00:20.350Z,999.90
2022-11-01T11:02:51.402Z,999.90
2022-11-01T11:05:20.681Z,999.90
2022-11-01T11:07:48.503Z,999.90
2022-11-01T11:10:23.985Z,999.90
2022-11-01T11:12:57.367Z,999.90
2022-11-01T11:15:37.157Z,999.90
2022-11-01T11:18:14.037Z,999.90
2022-11-01T11:20:42.060Z,999.90
2022-11-01T11:23:12.814Z,999.90
2022-11-01T11:25:42.233Z,999.90
2022-11-01T11:28:21.887Z,999.90
2022-11-01T11:30:51.445Z,999.90
2022-11-01T11:33:20.434Z,999.90
2022-11-01T11:35:56.806Z,999.90
2022-11-01T11:38:43.444Z,999.90
2022-11-01T11:41:13.245Z,999.90
2022-11-01T11:43:42.599Z,999.90
2022-11-01T11:46:20.899Z,999.90
2022-11-01T11:48:50.840Z,999.90
2022-11-01T11:51:20.277Z,999.90
2022-11-01T11:54:20.922Z,999.90
2022-11-01T11:56:51.269Z,999.90
2022-11-01T11:59:26.123Z,999.90
2022-11-01T12:02:00.529Z,999.90
2022-11-01T12:04:33.046Z,999.90
2022-11-01T12:07:00.950Z,999.90
2022-11-01T12:09:42.627Z,999.90
2022-11-01T12:12:18.104Z,999.90
2022-11-01T12:14:45.990Z,999.90
2022-11-01T12:17:36.503Z,999.90
2022-11-01T12:20:16.427Z,999.90
2022-11-01T12:22:48.737Z,999.90
2022-11-01T12:25:20.090Z,999.90
2022-11-01T12:27:58.958Z,999.90
2022-11-01T12:30:29.166Z,999.90
2022-11-01T12:33:00.329Z,999.90
2022-11-01T12:35:32.513Z,999.90
2022-11-01T12:38:34.870Z,999.90
2022-11-01T12:41:16.742Z,999.90
2022-11-01T12:43:54.706Z,999.90
2022-11-01T12:46:29.868Z,999.90
2022-11-01T12:49:04.449Z,999.90
2022-11-01T12:51:37.566Z,999.90
2022-11-01T12:54:12.031Z,999.90
2022-11-01T12:56:39.973Z,999.90
2022-11-01T12:59:11.959Z,999.90
2022-11-01T13:01:49.000Z,999.90
2022-11-01T13:04:31.170Z,999.90
2022-11-01T13:07:11.802Z,999.90
2022-11-01T13:09:49.968Z,999.90
2022-11-01T13:12:27.397Z,999.90
2022-11-01T13:15:05.971Z,999.90
2022-11-01T13:17:44.110Z,999.90
2022-11-01T13:20:32.978Z,999.90
2022-11-01T13:23:10.143Z,999.90
2022-11-01T13:25:43.174Z,999.90
2022-11-01T13:28:25.899Z,999.90
2022-11-01T13:31:02.573Z,999.90
2022-11-01T13:33:39.496Z,999.90
2022-11-01T13:36:16.645Z,999.90
2022-11-01T13:38:49.768Z,999.90
2022-11-01T13:41:26.686Z,999.90
2022-11-01T13:43:58.678Z,999.90
2022-11-01T13:46:41.599Z,999.90
2022-11-01T13:49:37.344Z,999.90
2022-11-01T13:52:13.889Z,999.90
2022-11-01T13:54:50.613Z,999.90
2022-11-01T13:57:20.879Z,999.90
2022-11-01T13:59:55.644Z,999.90
2022-11-01T14:02:52.478Z,999.90
2022-11-01T14:05:20.760Z,999.90
2022-11-01T14:08:21.657Z,999.90
2022-11-01T14:10:52.177Z,999.90
2022-11-01T14:13:32.448Z,999.90
2022-11-01T14:16:26.157Z,999.90
2022-11-01T14:19:20.808Z,999.90
2022-11-01T14:21:53.073Z,999.90
2022-11-01T14:24:32.011Z,999.90
2022-11-01T14:27:22.496Z,999.90
2022-11-01T14:29:57.123Z,999.90
2022-11-01T14:32:32.873Z,999.90
2022-11-01T14:35:08.317Z,999.90
2022-11-01T14:37:42.314Z,999.90
2022-11-01T14:40:32.382Z,999.90
2022-11-01T14:43:06.981Z,999.90
2022-11-01T14:45:40.295Z,999.90
2022-11-01T14:48:19.773Z,999.90
2022-11-01T14:50:59.376Z,999.90
2022-11-01T14:53:34.072Z,999.90
2022-11-01T14:56:16.351Z,999.90
2022-11-01T14:58:47.893Z,999.90
2022-11-01T15:01:19.665Z,999.90
2022-11-01T15:03:56.527Z,999.90
2022-11-01T15:06:28.549Z,999.90
2022-11-01T15:08:59.042Z,999.90
2022-11-01T15:11:30.274Z,999.90
2022-11-01T15:14:03.564Z,999.90
2022-11-01T15:16:36.416Z,999.90
2022-11-01T15:19:10.143Z,999.90
2022-11-01T15:21:46.918Z,999.90
2022-11-01T15:24:20.534Z,999.90
2022-11-01T15:26:50.978Z,999.90
2022-11-01T15:29:24.822Z,999.90
2022-11-01T15:31:58.946Z,999.90
2022-11-01T15:34:30.264Z,999.90
2022-11-01T15:37:10.963Z,999.90
2022-11-01T15:39:40.810Z,999.90
2022-11-01T15:42:18.224Z,999.90
2022-11-01T15:44:49.816Z,999.90
2022-11-01T15:47:23.561Z,999.90
2022-11-01T15:49:58.615Z,999.90
2022-11-01T15:52:31.655Z,999.90
2022-11-01T15:55:06.061Z,999.90
2022-11-01T15:57:39.272Z,999.90
2022-11-01T16:00:18.330Z,999.90
2022-11-01T16:02:53.664Z,999.90
2022-11-01T16:05:29.521Z,999.90
2022-11-01T16:08:00.220Z,999.90
2022-11-01T16:10:31.421Z,999.90
2022-11-01T16:13:02.683Z,999.90
2022-11-01T16:15:35.504Z,999.90
2022-11-01T16:18:16.896Z,999.90
2022-11-01T16:20:47.930Z,999.90
2022-11-01T16:23:27.901Z,999.90
2022-11-01T16:26:06.134Z,999.90
2022-11-01T16:28:40.664Z,999.90
2022-11-01T16:31:25.838Z,999.90
2022-11-01T16:33:56.630Z,999.90
2022-11-01T16:36:35.543Z,999.90
2022-11-01T16:39:31.019Z,999.90
2022-11-01T16:42:01.254Z,999.90
2022-11-01T16:44:31.119Z,999.90
2022-11-01T16:47:02.476Z,999.90
2022-11-01T16:49:32.286Z,999.90
2022-11-01T16:52:02.138Z,999.90
2022-11-01T16:54:31.978Z,999.90
2022-11-01T16:57:01.817Z,999.90
2022-11-01T16:59:38.109Z,999.90
2022-11-01T17:02:17.778Z,999.90
2022-11-01T17:04:51.583Z,999.90
2022-11-01T17:07:21.570Z,999.90
2022-11-01T17:09:51.513Z,999.90
2022-11-01T17:12:21.609Z,999.90
2022-11-01T17:14:52.458Z,999.90
2022-11-01T17:17:24.726Z,999.90
2022-11-01T17:19:59.423Z,999.90
2022-11-01T17:22:34.693Z,999.90
2022-11-01T17:25:05.739Z,999.90
2022-11-01T17:27:35.622Z,999.90
2022-11-01T17:30:06.053Z,999.90
2022-11-01T17:32:37.235Z,999.90
2022-11-01T17:35:08.334Z,999.90
2022-11-01T17:37:38.465Z,999.90
2022-11-01T17:40:18.915Z,999.90
2022-11-01T17:42:48.768Z,999.90
2022-11-01T17:45:18.952Z,999.90
2022-11-01T17:47:53.128Z,999.90
2022-11-01T17:50:23.373Z,999.90
2022-11-01T17:52:54.241Z,999.90
2022-11-01T17:55:24.108Z,999.90
2022-11-01T17:57:54.134Z,999.90
2022-11-01T18:00:23.936Z,999.90
2022-11-01T18:02:55.186Z,999.90
2022-11-01T18:05:25.557Z,743.57
2022-11-01T18:07:55.414Z,824.00
2022-11-01T18:10:38.227Z,878.97
2022-11-01T18:13:28.237Z,738.83
2022-11-01T18:16:06.326Z,830.67
2022-11-01T18:19:00.290Z,800.73
2022-11-01T18:21:33.417Z,829.17
2022-11-01T18:24:14.245Z,749.70
2022-11-01T18:26:46.396Z,875.90
2022-11-01T18:29:19.635Z,638.07
2022-11-01T18:31:58.395Z,878.97
2022-11-01T18:34:38.575Z,884.43
2022-11-01T18:37:21.416Z,488.77
2022-11-01T18:40:01.205Z,580.63
2022-11-01T18:42:31.326Z,843.87
2022-11-01T18:45:16.279Z,976.10
2022-11-01T18:47:51.601Z,999.60
2022-11-01T18:50:26.081Z,999.90
2022-11-01T18:53:07.361Z,999.90
2022-11-01T18:55:39.058Z,999.90
2022-11-01T18:58:16.725Z,999.90
2022-11-01T19:00:46.635Z,911.43
2022-11-01T19:03:21.808Z,918.57
2022-11-01T19:05:55.218Z,903.73
2022-11-01T19:08:27.193Z,889.53
2022-11-01T19:10:57.322Z,731.93
2022-11-01T19:13:31.099Z,655.77
2022-11-01T19:16:02.982Z,753.97
2022-11-01T19:18:32.945Z,712.83
2022-11-01T19:21:04.785Z,620.33
2022-11-01T19:23:38.035Z,581.00
2022-11-01T19:26:17.785Z,531.97
2022-11-01T19:28:51.826Z,489.00
2022-11-01T19:31:27.270Z,445.87
2022-11-01T19:33:59.996Z,416.43
2022-11-01T19:39:22.489Z,383.53
2022-11-01T19:41:53.986Z,424.93
2022-11-01T19:44:26.462Z,423.67
2022-11-01T19:47:06.703Z,429.17
2022-11-01T19:49:38.965Z,435.23
2022-11-01T19:52:27.234Z,420.50
2022-11-01T19:54:57.058Z,376.70
2022-11-01T19:57:31.278Z,335.27
2022-11-01T20:00:17.087Z,340.03
2022-11-01T20:02:47.484Z,329.17
2022-11-01T20:05:28.986Z,193.43
2022-11-01T20:08:14.214Z,228.07
2022-11-01T20:10:44.055Z,187.27
2022-11-01T20:13:13.926Z,239.50
2022-11-01T20:15:44.276Z,173.00
2022-11-01T20:18:14.156Z,438.23
2022-11-01T20:20:45.872Z,562.23
2022-11-01T20:23:32.864Z,660.53
2022-11-01T20:26:04.582Z,797.50
2022-11-01T20:28:34.477Z,678.27
2022-11-01T20:31:05.260Z,644.30
2022-11-01T20:33:35.379Z,673.23
2022-11-01T20:36:11.018Z,635.00
2022-11-01T20:38:42.673Z,617.07
2022-11-01T20:41:13.000Z,642.73
2022-11-01T20:43:43.081Z,595.37
2022-11-01T20:46:13.443Z,618.33
2022-11-01T20:48:45.208Z,635.33
2022-11-01T20:51:15.388Z,479.07
2022-11-01T20:53:46.580Z,587.80
2022-11-01T20:56:16.455Z,211.03
2022-11-01T20:58:46.268Z,215.00
2022-11-01T21:01:16.933Z,240.27
2022-11-01T21:03:47.082Z,262.60
2022-11-01T21:06:18.719Z,197.80
2022-11-01T21:08:50.336Z,191.83
2022-11-01T21:11:43.477Z,204.10
2022-11-01T21:14:16.561Z,219.23
2022-11-01T21:16:48.057Z,153.80
2022-11-01T21:19:21.173Z,138.57
2022-11-01T21:21:53.686Z,160.10
2022-11-01T21:24:36.073Z,140.93
2022-11-01T21:27:22.513Z,159.53
2022-11-01T21:29:54.329Z,166.30
2022-11-01T21:32:30.012Z,154.00
2022-11-01T21:35:00.053Z,133.63
2022-11-01T21:37:30.871Z,120.63
2022-11-01T21:40:06.591Z,124.73
2022-11-01T21:42:38.268Z,145.77
2022-11-01T21:45:28.306Z,134.47
2022-11-01T21:48:02.245Z,178.37
2022-11-01T21:50:32.445Z,188.97
2022-11-01T21:53:02.452Z,219.57
2022-11-01T21:55:34.561Z,201.03
2022-11-01T21:58:04.580Z,224.87
2022-11-01T22:00:34.424Z,233.63
2022-11-01T22:03:04.794Z,383.20
2022-11-01T22:05:34.932Z,272.73
2022-11-01T22:08:05.143Z,383.30
2022-11-01T22:10:36.323Z,381.07
2022-11-01T22:13:07.028Z,348.37
2022-11-01T22:15:37.114Z,384.37
2022-11-01T22:18:07.107Z,469.80
2022-11-01T22:20:37.253Z,446.63
2022-11-01T22:23:07.223Z,442.13
2022-11-01T22:25:38.563Z,429.73
2022-11-01T22:28:08.400Z,417.53
2022-11-01T22:30:38.336Z,530.83
2022-11-01T22:33:09.135Z,472.23
2022-11-01T22:35:38.935Z,636.37
2022-11-01T22:38:16.296Z,684.43
2022-11-01T22:40:52.298Z,790.07
2022-11-01T22:43:22.344Z,809.83
2022-11-01T22:45:54.036Z,794.47
2022-11-01T22:48:24.883Z,999.43
2022-11-01T22:50:54.717Z,670.07
2022-11-01T22:53:26.739Z,727.67
2022-11-01T22:55:57.923Z,750.83
2022-11-01T22:58:36.015Z,751.60
2022-11-01T23:01:19.480Z,873.67
2022-11-01T23:03:53.854Z,960.60
2022-11-01T23:06:34.816Z,827.10
2022-11-01T23:09:13.959Z,895.87
2022-11-01T23:12:10.203Z,966.77
2022-11-01T23:14:45.419Z,929.03
2022-11-01T23:17:22.200Z,902.37
2022-11-01T23:19:54.119Z,894.57
2022-11-01T23:22:26.573Z,912.23
2022-11-01T23:24:56.773Z,958.50
2022-11-01T23:27:30.686Z,958.37
2022-11-01T23:30:03.007Z,984.27
2022-11-01T23:32:32.927Z,974.33
2022-11-01T23:35:11.712Z,999.90
2022-11-01T23:37:42.737Z,999.90
2022-11-01T23:40:18.789Z,944.63
2022-11-01T23:42:51.481Z,961.60
2022-11-01T23:45:28.746Z,952.93
2022-11-01T23:48:00.497Z,999.90
2022-11-01T23:50:31.868Z,999.90
2022-11-01T23:53:05.018Z,999.90
2022-11-01T23:55:38.287Z,999.90
2022-11-01T23:58:13.492Z,999.90
